createdAt,value
2023-02-15T00:00:12.227Z,17.73
2023-02-15T00:02:41.190Z,16.37
2023-02-15T00:05:10.157Z,17.63
2023-02-15T00:07:36.964Z,17.45
2023-02-15T00:10:05.476Z,16.20
2023-02-15T00:12:32.291Z,17.25
2023-02-15T00:14:59.348Z,17.42
2023-02-15T00:17:29.746Z,16.50
2023-02-15T00:19:56.662Z,17.65
2023-02-15T00:22:23.841Z,17.10
2023-02-15T00:24:51.048Z,15.95
2023-02-15T00:27:17.875Z,17.17
2023-02-15T00:29:44.870Z,16.65
2023-02-15T00:32:11.648Z,17.30
2023-02-15T00:34:38.424Z,17.75
2023-02-15T00:37:07.036Z,17.80
2023-02-15T00:39:34.178Z,15.07
2023-02-15T00:42:01.919Z,15.98
2023-02-15T00:44:29.320Z,16.63
2023-02-15T00:46:56.094Z,15.93
2023-02-15T00:49:22.844Z,15.98
2023-02-15T00:51:50.143Z,16.15
2023-02-15T00:54:18.149Z,15.20
2023-02-15T00:56:45.063Z,15.85
2023-02-15T00:59:12.592Z,15.02
2023-02-15T01:01:39.486Z,15.70
2023-02-15T01:04:07.646Z,15.73
2023-02-15T01:06:35.071Z,15.98
2023-02-15T01:09:02.189Z,14.93
2023-02-15T01:11:30.798Z,14.55
2023-02-15T01:13:59.144Z,14.65
2023-02-15T01:16:28.708Z,14.43
2023-02-15T01:18:56.364Z,15.05
2023-02-15T01:21:25.726Z,14.75
2023-02-15T01:23:52.801Z,15.25
2023-02-15T01:26:22.444Z,15.98
2023-02-15T01:28:49.331Z,15.48
2023-02-15T01:31:19.329Z,16.48
2023-02-15T01:33:47.500Z,16.63
2023-02-15T01:36:15.430Z,14.68
2023-02-15T01:38:42.904Z,16.33
2023-02-15T01:41:27.315Z,15.90
2023-02-15T01:44:00.846Z,15.95
2023-02-15T01:46:47.759Z,16.55
2023-02-15T01:49:22.127Z,15.40
2023-02-15T01:51:53.444Z,17.23
2023-02-15T01:54:26.536Z,16.13
2023-02-15T01:56:56.103Z,16.38
2023-02-15T01:59:27.381Z,16.80
2023-02-15T02:01:59.587Z,17.10
2023-02-15T02:04:56.374Z,17.05
2023-02-15T02:07:29.234Z,15.82
2023-02-15T02:09:56.272Z,16.27
2023-02-15T02:12:24.886Z,15.63
2023-02-15T02:14:52.822Z,16.23
2023-02-15T02:17:52.703Z,16.60
2023-02-15T02:20:38.051Z,17.23
2023-02-15T02:23:36.826Z,16.27
2023-02-15T02:26:27.874Z,16.60
2023-02-15T02:29:04.669Z,16.85
2023-02-15T02:32:11.321Z,17.08
2023-02-15T02:35:13.308Z,17.33
2023-02-15T02:38:22.184Z,15.77
2023-02-15T02:41:31.025Z,16.48
2023-02-15T02:43:59.928Z,16.50
2023-02-15T02:46:38.994Z,15.02
2023-02-15T02:49:05.924Z,16.05
2023-02-15T02:51:32.834Z,15.05
2023-02-15T02:54:06.647Z,16.77
2023-02-15T02:56:39.581Z,16.63
2023-02-15T02:59:22.582Z,15.65
2023-02-15T03:02:05.798Z,16.05
2023-02-15T03:04:37.251Z,14.73
2023-02-15T03:07:15.266Z,15.90
2023-02-15T03:09:51.227Z,15.23
2023-02-15T03:12:28.233Z,15.27
2023-02-15T03:15:19.413Z,14.80
2023-02-15T03:17:57.658Z,14.57
2023-02-15T03:20:33.746Z,14.57
2023-02-15T03:23:14.871Z,14.77
2023-02-15T03:25:45.715Z,14.70
2023-02-15T03:28:26.391Z,14.73
2023-02-15T03:30:57.069Z,14.35
2023-02-15T03:33:27.113Z,14.55
2023-02-15T03:36:04.576Z,14.20
2023-02-15T03:39:06.146Z,14.80
2023-02-15T03:41:48.903Z,14.57
2023-02-15T03:44:45.052Z,13.90
2023-02-15T03:47:21.285Z,14.70
2023-02-15T03:49:53.947Z,14.35
2023-02-15T03:52:22.983Z,15.07
2023-02-15T03:54:50.740Z,13.75
2023-02-15T03:57:48.614Z,14.10
2023-02-15T04:00:38.964Z,14.52
2023-02-15T04:03:41.529Z,14.55
2023-02-15T04:06:08.952Z,14.40
2023-02-15T04:08:54.318Z,14.23
2023-02-15T04:11:21.073Z,12.93
2023-02-15T04:13:47.823Z,14.32
2023-02-15T04:16:14.821Z,13.85
2023-02-15T04:19:03.682Z,13.52
2023-02-15T04:21:50.190Z,14.32
2023-02-15T04:24:36.417Z,14.88
2023-02-15T04:27:05.262Z,13.57
2023-02-15T04:29:32.324Z,13.88
2023-02-15T04:32:04.202Z,14.48
2023-02-15T04:34:31.391Z,10.65
2023-02-15T04:36:58.213Z,12.65
2023-02-15T04:39:25.068Z,13.45
2023-02-15T04:41:51.865Z,13.85
2023-02-15T04:44:19.195Z,14.30
2023-02-15T04:46:46.005Z,14.60
2023-02-15T04:49:12.840Z,13.10
2023-02-15T04:51:39.638Z,12.43
2023-02-15T04:54:06.505Z,13.25
2023-02-15T04:56:35.737Z,13.43
2023-02-15T04:59:02.785Z,13.50
2023-02-15T05:01:29.865Z,13.55
2023-02-15T05:03:56.738Z,12.90
2023-02-15T05:06:24.199Z,11.68
2023-02-15T05:08:51.428Z,13.40
2023-02-15T05:11:18.238Z,13.18
2023-02-15T05:13:45.059Z,12.73
2023-02-15T05:16:11.976Z,13.50
2023-02-15T05:18:38.785Z,13.13
2023-02-15T05:23:33.572Z,13.00
2023-02-15T05:26:18.622Z,13.75
2023-02-15T05:28:45.473Z,13.82
2023-02-15T05:31:15.978Z,14.55
2023-02-15T05:33:43.345Z,13.45
2023-02-15T05:36:11.165Z,14.30
2023-02-15T05:38:38.913Z,14.70
2023-02-15T05:41:12.220Z,13.38
2023-02-15T05:43:39.951Z,14.45
2023-02-15T05:46:07.539Z,15.63
2023-02-15T05:48:35.097Z,13.88
2023-02-15T05:51:08.490Z,15.18
2023-02-15T05:53:38.874Z,12.90
2023-02-15T05:56:08.023Z,13.45
2023-02-15T05:58:38.757Z,14.43
2023-02-15T06:01:14.601Z,13.95
2023-02-15T06:03:42.126Z,15.98
2023-02-15T06:06:10.493Z,15.23
2023-02-15T06:08:38.851Z,16.17
2023-02-15T06:11:07.315Z,14.45
2023-02-15T06:13:38.343Z,16.42
2023-02-15T06:16:06.947Z,16.98
2023-02-15T06:18:34.141Z,14.43
2023-02-15T06:21:00.964Z,14.70
2023-02-15T06:23:28.728Z,14.40
2023-02-15T06:25:55.708Z,13.35
2023-02-15T06:28:23.362Z,16.08
2023-02-15T06:30:50.381Z,15.35
2023-02-15T06:33:17.442Z,14.07
2023-02-15T06:35:49.322Z,16.40
2023-02-15T06:38:16.287Z,15.50
2023-02-15T06:40:43.449Z,16.13
2023-02-15T06:43:10.390Z,14.00
2023-02-15T06:45:37.999Z,14.55
2023-02-15T06:48:07.842Z,17.55
2023-02-15T06:50:35.680Z,16.20
2023-02-15T06:53:03.185Z,16.90
2023-02-15T06:55:30.620Z,14.07
2023-02-15T06:57:57.643Z,17.58
2023-02-15T07:00:24.503Z,15.52
2023-02-15T07:02:56.962Z,15.77
2023-02-15T07:05:31.646Z,14.88
2023-02-15T07:08:01.345Z,16.70
2023-02-15T07:10:29.467Z,15.38
2023-02-15T07:12:56.666Z,16.33
2023-02-15T07:15:24.231Z,14.63
2023-02-15T07:17:51.188Z,15.80
2023-02-15T07:20:23.095Z,16.80
2023-02-15T07:22:51.235Z,11.85
2023-02-15T07:25:19.884Z,14.60
2023-02-15T07:27:47.897Z,15.68
2023-02-15T07:30:18.535Z,18.08
2023-02-15T07:33:05.640Z,15.13
2023-02-15T07:35:34.226Z,14.15
2023-02-15T07:38:02.031Z,18.60
2023-02-15T07:40:29.503Z,16.38
2023-02-15T07:43:00.516Z,14.32
2023-02-15T07:45:28.352Z,14.77
2023-02-15T07:47:56.136Z,17.13
2023-02-15T07:50:23.540Z,14.70
2023-02-15T07:52:50.829Z,14.40
2023-02-15T07:55:17.643Z,16.08
2023-02-15T07:57:46.754Z,15.30
2023-02-15T08:00:21.744Z,16.30
2023-02-15T08:03:15.307Z,15.93
2023-02-15T08:05:45.010Z,16.33
2023-02-15T08:08:30.548Z,14.43
2023-02-15T08:11:34.235Z,15.90
2023-02-15T08:16:52.371Z,17.23
2023-02-15T08:19:28.686Z,17.33
2023-02-15T08:21:59.790Z,15.75
2023-02-15T08:24:35.310Z,16.45
2023-02-15T08:27:06.369Z,17.42
2023-02-15T08:29:36.602Z,18.80
2023-02-15T08:32:08.894Z,16.60
2023-02-15T08:34:41.662Z,15.63
2023-02-15T08:37:08.620Z,17.92
2023-02-15T08:39:35.837Z,14.70
2023-02-15T08:42:03.504Z,15.73
2023-02-15T08:44:31.351Z,15.35
2023-02-15T08:47:03.587Z,17.27
2023-02-15T08:49:32.198Z,12.43
2023-02-15T08:51:59.181Z,16.25
2023-02-15T08:54:26.708Z,14.32
2023-02-15T08:56:55.033Z,15.88
2023-02-15T08:59:24.093Z,14.93
2023-02-15T09:01:54.576Z,14.85
2023-02-15T09:04:23.740Z,16.88
2023-02-15T09:06:52.697Z,14.23
2023-02-15T09:09:21.630Z,14.13
2023-02-15T09:11:57.904Z,15.07
2023-02-15T09:14:28.373Z,13.93
2023-02-15T09:16:55.800Z,15.07
2023-02-15T09:19:26.327Z,13.00
2023-02-15T09:21:53.806Z,13.02
2023-02-15T09:24:22.742Z,14.38
2023-02-15T09:26:51.062Z,14.10
2023-02-15T09:29:20.830Z,13.30
2023-02-15T09:31:52.870Z,11.95
2023-02-15T09:34:23.548Z,12.73
2023-02-15T09:36:52.201Z,13.27
2023-02-15T09:39:22.032Z,16.30
2023-02-15T09:42:13.415Z,17.63
2023-02-15T09:45:10.480Z,14.10
2023-02-15T09:47:54.916Z,13.90
2023-02-15T09:50:49.080Z,15.52
2023-02-15T09:54:05.010Z,21.38
2023-02-15T09:56:43.152Z,14.07
2023-02-15T09:59:34.013Z,14.15
2023-02-15T10:02:44.757Z,14.77
2023-02-15T10:05:50.422Z,13.45
2023-02-15T10:08:54.632Z,13.27
2023-02-15T10:12:13.304Z,14.00
2023-02-15T10:15:12.536Z,16.38
2023-02-15T10:18:08.338Z,14.48
2023-02-15T10:20:45.830Z,15.50
2023-02-15T10:24:00.505Z,13.30
2023-02-15T10:26:51.145Z,12.82
2023-02-15T10:29:34.527Z,13.70
2023-02-15T10:32:24.764Z,14.65
2023-02-15T10:35:35.779Z,13.98
2023-02-15T10:38:14.637Z,12.32
2023-02-15T10:40:47.415Z,12.85
2023-02-15T10:43:45.607Z,12.93
2023-02-15T10:46:40.804Z,12.95
2023-02-15T10:49:45.206Z,12.90
2023-02-15T10:53:02.091Z,12.25
2023-02-15T10:55:51.990Z,12.63
2023-02-15T10:59:01.131Z,12.30
2023-02-15T11:01:50.023Z,12.57
2023-02-15T11:04:48.984Z,11.02
2023-02-15T11:07:34.825Z,11.57
2023-02-15T11:10:24.604Z,12.35
2023-02-15T11:12:52.659Z,13.02
2023-02-15T11:15:36.496Z,13.32
2023-02-15T11:18:28.847Z,12.20
2023-02-15T11:21:04.607Z,9.88
2023-02-15T11:23:34.941Z,13.07
2023-02-15T11:26:09.857Z,13.65
2023-02-15T11:28:49.636Z,13.40
2023-02-15T11:31:23.927Z,13.43
2023-02-15T11:34:05.763Z,13.13
2023-02-15T11:36:41.573Z,14.43
2023-02-15T11:39:17.281Z,13.45
2023-02-15T11:41:54.760Z,12.07
2023-02-15T11:44:34.206Z,12.57
2023-02-15T11:47:02.448Z,13.88
2023-02-15T11:49:35.624Z,13.43
2023-02-15T11:52:07.303Z,14.35
2023-02-15T11:54:38.176Z,13.48
2023-02-15T11:57:34.806Z,13.27
2023-02-15T12:00:20.491Z,14.60
2023-02-15T12:02:53.665Z,13.95
2023-02-15T12:05:25.220Z,13.73
2023-02-15T12:08:22.022Z,13.65
2023-02-15T12:11:00.236Z,14.18
2023-02-15T12:13:27.687Z,13.95
2023-02-15T12:15:57.875Z,13.52
2023-02-15T12:18:54.274Z,13.95
2023-02-15T12:21:40.778Z,13.68
2023-02-15T12:24:16.601Z,13.98
2023-02-15T12:26:43.837Z,14.38
2023-02-15T12:29:18.445Z,13.35
2023-02-15T12:31:48.731Z,14.23
2023-02-15T12:34:32.234Z,15.70
2023-02-15T12:37:03.921Z,15.48
2023-02-15T12:39:33.209Z,14.88
2023-02-15T12:42:03.144Z,14.75
2023-02-15T12:44:36.738Z,15.25
2023-02-15T12:47:03.727Z,14.25
2023-02-15T12:49:38.377Z,14.35
2023-02-15T12:52:18.702Z,15.13
2023-02-15T12:54:45.620Z,14.75
2023-02-15T12:57:35.728Z,15.07
2023-02-15T13:00:29.314Z,15.48
2023-02-15T13:02:58.795Z,14.63
2023-02-15T13:05:45.322Z,15.77
2023-02-15T13:08:17.235Z,15.52
2023-02-15T13:11:12.813Z,15.43
2023-02-15T13:13:55.845Z,15.43
2023-02-15T13:16:33.055Z,15.65
2023-02-15T13:19:07.114Z,13.98
2023-02-15T13:21:40.567Z,16.52
2023-02-15T13:24:23.707Z,15.95
2023-02-15T13:29:33.950Z,16.25
2023-02-15T13:32:25.616Z,17.17
2023-02-15T13:34:58.997Z,16.13
2023-02-15T13:37:37.729Z,15.95
2023-02-15T13:40:15.429Z,16.63
2023-02-15T13:42:50.578Z,16.05
2023-02-15T13:45:54.454Z,16.33
2023-02-15T13:48:51.420Z,16.10
2023-02-15T13:51:39.296Z,16.67
2023-02-15T13:54:20.336Z,16.30
2023-02-15T13:57:26.472Z,15.38
2023-02-15T14:00:09.525Z,16.58
2023-02-15T14:02:51.224Z,15.27
2023-02-15T14:05:52.685Z,15.98
2023-02-15T14:08:41.502Z,16.42
2023-02-15T14:11:28.595Z,16.05
2023-02-15T14:14:36.688Z,15.52
2023-02-15T14:17:46.781Z,16.17
2023-02-15T14:20:43.820Z,15.77
2023-02-15T14:23:46.432Z,17.13
2023-02-15T14:26:46.887Z,16.33
2023-02-15T14:29:44.027Z,16.77
2023-02-15T14:32:38.164Z,16.45
2023-02-15T14:35:14.690Z,15.95
2023-02-15T14:37:59.783Z,15.73
2023-02-15T14:41:09.638Z,16.63
2023-02-15T14:44:08.294Z,17.45
2023-02-15T14:46:59.425Z,16.45
2023-02-15T14:49:32.086Z,16.15
2023-02-15T14:52:01.605Z,17.42
2023-02-15T14:54:31.261Z,16.63
2023-02-15T14:57:04.441Z,15.50
2023-02-15T14:59:59.265Z,15.45
2023-02-15T15:02:31.635Z,18.05
2023-02-15T15:05:10.468Z,17.25
2023-02-15T15:07:57.390Z,16.95
2023-02-15T15:10:24.285Z,17.17
2023-02-15T15:12:56.371Z,17.27
2023-02-15T15:15:31.933Z,17.53
2023-02-15T15:18:08.736Z,16.65
2023-02-15T15:20:45.722Z,16.35
2023-02-15T15:23:15.670Z,16.73
2023-02-15T15:25:57.108Z,17.35
2023-02-15T15:28:36.352Z,16.30
2023-02-15T15:31:30.133Z,18.83
2023-02-15T15:34:29.279Z,18.27
2023-02-15T15:37:19.635Z,17.40
2023-02-15T15:40:21.553Z,19.40
2023-02-15T15:44:02.555Z,17.33
2023-02-15T15:46:57.417Z,17.17
2023-02-15T15:49:31.603Z,17.27
2023-02-15T15:52:03.944Z,16.42
2023-02-15T15:54:31.643Z,17.88
2023-02-15T15:57:04.828Z,18.10
2023-02-15T15:59:34.835Z,17.90
2023-02-15T16:02:07.927Z,18.67
2023-02-15T16:04:35.864Z,22.13
2023-02-15T16:07:18.534Z,20.80
2023-02-15T16:10:04.369Z,20.25
2023-02-15T16:12:36.914Z,18.92
2023-02-15T16:15:17.633Z,20.55
2023-02-15T16:17:48.521Z,18.60
2023-02-15T16:20:30.955Z,19.73
2023-02-15T16:23:57.090Z,19.55
2023-02-15T16:26:48.192Z,19.05
2023-02-15T16:29:18.039Z,19.60
2023-02-15T16:32:15.870Z,19.25
2023-02-15T16:35:00.044Z,19.33
2023-02-15T16:37:33.666Z,19.17
2023-02-15T16:40:00.871Z,17.98
2023-02-15T16:42:28.004Z,18.63
2023-02-15T16:45:13.308Z,18.98
2023-02-15T16:47:48.020Z,18.50
2023-02-15T16:50:28.414Z,18.77
2023-02-15T16:52:55.482Z,19.58
2023-02-15T16:55:26.510Z,18.70
2023-02-15T16:57:59.967Z,19.23
2023-02-15T17:00:30.832Z,18.20
2023-02-15T17:03:23.690Z,19.50
2023-02-15T17:06:00.917Z,16.23
2023-02-15T17:08:42.913Z,21.42
2023-02-15T17:11:22.663Z,23.77
2023-02-15T17:14:09.714Z,21.63
2023-02-15T17:16:50.465Z,22.65
2023-02-15T17:19:24.459Z,21.33
2023-02-15T17:22:02.413Z,20.38
2023-02-15T17:24:32.622Z,20.17
2023-02-15T17:27:06.395Z,20.00
2023-02-15T17:29:47.284Z,19.80
2023-02-15T17:32:24.272Z,19.05
2023-02-15T17:35:05.257Z,19.17
2023-02-15T17:37:46.282Z,20.38
2023-02-15T17:40:27.678Z,26.17
2023-02-15T17:42:55.148Z,21.17
2023-02-15T17:45:27.057Z,20.85
2023-02-15T17:47:55.739Z,15.35
2023-02-15T17:50:26.876Z,19.98
2023-02-15T17:52:56.753Z,20.08
2023-02-15T17:55:41.245Z,20.88
2023-02-15T17:58:16.460Z,21.85
2023-02-15T18:01:11.614Z,20.08
2023-02-15T18:04:12.415Z,20.45
2023-02-15T18:07:01.386Z,21.75
2023-02-15T18:09:46.648Z,21.90
2023-02-15T18:12:23.953Z,20.98
2023-02-15T18:14:52.288Z,22.48
2023-02-15T18:17:19.597Z,22.67
2023-02-15T18:19:47.925Z,22.02
2023-02-15T18:22:19.849Z,22.35
2023-02-15T18:24:50.417Z,22.15
2023-02-15T18:27:17.256Z,21.95
2023-02-15T18:29:44.106Z,22.17
2023-02-15T18:32:23.982Z,23.00
2023-02-15T18:34:52.397Z,21.23
2023-02-15T18:37:22.263Z,22.25
2023-02-15T18:39:56.232Z,27.45
2023-02-15T18:42:36.501Z,25.08
2023-02-15T18:45:28.546Z,25.05
2023-02-15T18:47:57.176Z,24.17
2023-02-15T18:50:35.817Z,22.50
2023-02-15T18:53:20.892Z,24.33
2023-02-15T18:55:49.599Z,28.75
2023-02-15T18:58:23.673Z,33.75
2023-02-15T19:00:51.606Z,29.05
2023-02-15T19:03:19.519Z,26.20
2023-02-15T19:05:48.112Z,24.83
2023-02-15T19:08:25.801Z,24.00
2023-02-15T19:10:53.456Z,23.58
2023-02-15T19:13:21.209Z,24.15
2023-02-15T19:15:48.128Z,23.35
2023-02-15T19:18:15.722Z,24.00
2023-02-15T19:20:45.688Z,25.40
2023-02-15T19:23:19.482Z,24.55
2023-02-15T19:25:48.426Z,24.08
2023-02-15T19:28:30.632Z,24.70
2023-02-15T19:30:57.423Z,24.97
2023-02-15T19:33:24.323Z,25.02
2023-02-15T19:35:57.754Z,24.35
2023-02-15T19:38:31.052Z,25.38
2023-02-15T19:41:05.059Z,25.42
2023-02-15T19:43:34.165Z,25.60
2023-02-15T19:46:01.703Z,25.00
2023-02-15T19:48:29.012Z,25.33
2023-02-15T19:50:57.047Z,26.20
2023-02-15T19:53:26.904Z,26.25
2023-02-15T19:55:54.506Z,27.15
2023-02-15T19:58:22.167Z,26.23
2023-02-15T20:00:51.695Z,27.15
2023-02-15T20:03:18.839Z,25.27
2023-02-15T20:05:47.240Z,25.40
2023-02-15T20:08:20.358Z,24.48
2023-02-15T20:10:48.269Z,26.05
2023-02-15T20:13:19.155Z,25.45
2023-02-15T20:15:47.584Z,25.77
2023-02-15T20:18:14.631Z,26.77
2023-02-15T20:20:55.051Z,26.08
2023-02-15T20:23:31.573Z,24.88
2023-02-15T20:26:01.811Z,30.75
2023-02-15T20:28:31.801Z,33.70
2023-02-15T20:31:00.831Z,23.38
2023-02-15T20:33:29.640Z,24.80
2023-02-15T20:35:56.537Z,24.23
2023-02-15T20:38:31.484Z,24.73
2023-02-15T20:41:19.382Z,24.73
2023-02-15T20:43:46.318Z,24.17
2023-02-15T20:46:13.182Z,24.67
2023-02-15T20:48:41.061Z,27.55
2023-02-15T20:51:18.999Z,24.63
2023-02-15T20:53:47.350Z,23.40
2023-02-15T20:56:23.881Z,26.13
2023-02-15T20:58:54.550Z,24.38
2023-02-15T21:01:21.755Z,24.45
2023-02-15T21:03:50.507Z,24.15
2023-02-15T21:06:18.189Z,24.25
2023-02-15T21:08:46.491Z,23.02
2023-02-15T21:11:23.265Z,24.50
2023-02-15T21:13:51.285Z,22.52
2023-02-15T21:16:18.201Z,24.02
2023-02-15T21:18:46.328Z,23.02
2023-02-15T21:21:23.423Z,24.42
2023-02-15T21:23:52.177Z,20.75
2023-02-15T21:26:22.588Z,21.30
2023-02-15T21:28:50.796Z,22.13
2023-02-15T21:31:22.387Z,19.83
2023-02-15T21:33:49.632Z,20.15
2023-02-15T21:36:20.844Z,22.38
2023-02-15T21:38:49.720Z,23.42
2023-02-15T21:41:40.129Z,23.27
2023-02-15T21:44:41.143Z,23.00
2023-02-15T21:47:47.948Z,21.83
2023-02-15T21:50:37.778Z,22.38
2023-02-15T21:53:09.679Z,20.75
2023-02-15T21:55:36.977Z,17.17
2023-02-15T21:58:05.311Z,20.92
2023-02-15T22:00:34.060Z,22.75
2023-02-15T22:03:02.025Z,21.27
2023-02-15T22:05:33.162Z,22.88
2023-02-15T22:08:01.515Z,21.80
2023-02-15T22:10:32.925Z,23.33
2023-02-15T22:13:04.418Z,23.00
2023-02-15T22:15:38.221Z,24.30
2023-02-15T22:18:06.849Z,22.88
2023-02-15T22:20:34.939Z,25.08
2023-02-15T22:23:01.977Z,23.55
2023-02-15T22:25:29.004Z,22.10
2023-02-15T22:27:55.909Z,23.10
2023-02-15T22:30:30.033Z,20.17
2023-02-15T22:32:58.821Z,22.63
2023-02-15T22:35:31.614Z,22.30
2023-02-15T22:37:58.963Z,24.50
2023-02-15T22:40:33.925Z,22.40
2023-02-15T22:43:04.865Z,22.90
2023-02-15T22:45:33.723Z,22.65
2023-02-15T22:48:03.151Z,18.40
2023-02-15T22:50:33.203Z,24.17
2023-02-15T22:53:02.364Z,24.83
2023-02-15T22:55:33.972Z,22.33
2023-02-15T22:58:02.737Z,24.83
2023-02-15T23:00:40.672Z,23.52
2023-02-15T23:03:28.962Z,23.77
2023-02-15T23:05:56.694Z,24.55
2023-02-15T23:08:23.619Z,23.48
2023-02-15T23:10:56.300Z,24.40
2023-02-15T23:13:32.488Z,23.20
2023-02-15T23:16:03.350Z,23.05
2023-02-15T23:18:41.356Z,24.55
2023-02-15T23:21:41.447Z,22.33
2023-02-15T23:24:23.691Z,22.02
2023-02-15T23:26:51.184Z,23.30
2023-02-15T23:29:23.797Z,22.13
2023-02-15T23:31:53.669Z,22.80
2023-02-15T23:34:25.837Z,23.67
2023-02-15T23:36:52.746Z,19.95
2023-02-15T23:39:45.589Z,22.40
2023-02-15T23:42:25.042Z,19.38
2023-02-15T23:44:52.252Z,21.25
2023-02-15T23:47:42.453Z,24.98
2023-02-15T23:50:26.003Z,23.85
2023-02-15T23:52:54.281Z,24.92
2023-02-15T23:55:21.854Z,24.63
2023-02-15T23:57:49.613Z,23.75
